Time;durP1;ratioP1;P1;durP2;ratioP2;P2;SDS_P1;SDS_P2;PMS_P1;PMS_P2;Temp;Humidity;BMP_temperature;BMP_pressure;BME280_temperature;BME280_humidity;BME280_pressure;Samples;Min_cycle;Max_cycle;Signal;HPM_P1;HPM_P2
2021/05/19 00:01:43;;;;;;;19.33;11.25;;;8.50;91.40;;;;;;5071081;28;20093;-54
2021/05/19 00:04:09;;;;;;;18.83;11.68;;;8.60;91.50;;;;;;5051647;28;20049;-52
2021/05/19 00:06:36;;;;;;;16.20;10.45;;;8.60;91.60;;;;;;5033847;28;20792;-53
2021/05/19 00:09:07;;;;;;;15.05;11.20;;;8.60;91.60;;;;;;5071323;28;20052;-56
2021/05/19 00:11:35;;;;;;;13.15;9.95;;;8.70;91.90;;;;;;5067621;28;20051;-55
2021/05/19 00:14:00;;;;;;;15.77;10.40;;;8.70;91.90;;;;;;5074232;28;20044;-55
2021/05/19 00:16:26;;;;;;;15.15;10.82;;;8.70;91.70;;;;;;5071991;28;20508;-55
2021/05/19 00:18:52;;;;;;;13.07;9.68;;;8.80;91.70;;;;;;5071006;28;20070;-55
2021/05/19 00:21:18;;;;;;;15.52;11.40;;;8.80;91.70;;;;;;5076505;28;20037;-55
2021/05/19 00:23:44;;;;;;;14.40;9.93;;;8.80;91.80;;;;;;5065215;28;20114;-55
2021/05/19 00:26:09;;;;;;;16.10;11.65;;;8.80;91.70;;;;;;5071433;28;20032;-55
2021/05/19 00:28:37;;;;;;;16.67;11.15;;;8.80;91.80;;;;;;5070369;28;20052;-54
2021/05/19 00:31:05;;;;;;;14.18;9.93;;;8.80;91.90;;;;;;5065485;28;20079;-55
2021/05/19 00:33:32;;;;;;;14.73;10.30;;;8.80;92.00;;;;;;5062811;28;20040;-55
2021/05/19 00:35:57;;;;;;;16.23;10.10;;;8.90;92.10;;;;;;5073713;28;20051;-56
2021/05/19 00:38:24;;;;;;;14.73;10.38;;;8.80;92.00;;;;;;5068825;28;20475;-55
2021/05/19 00:40:49;;;;;;;13.48;9.80;;;8.90;92.00;;;;;;5064263;28;20044;-55
2021/05/19 00:43:15;;;;;;;16.27;9.80;;;8.90;92.20;;;;;;5070561;28;20060;-55
2021/05/19 00:45:41;;;;;;;12.63;10.32;;;8.90;91.90;;;;;;5068067;28;20086;-55
2021/05/19 00:48:10;;;;;;;14.43;10.32;;;8.90;92.00;;;;;;5062680;28;20070;-55
2021/05/19 00:50:38;;;;;;;15.88;9.90;;;8.90;92.00;;;;;;5075783;28;20043;-55
2021/05/19 00:53:05;;;;;;;12.63;9.95;;;8.90;91.90;;;;;;5071551;28;20055;-56
2021/05/19 00:55:31;;;;;;;15.93;10.73;;;8.90;92.00;;;;;;5072336;28;20077;-55
2021/05/19 00:57:57;;;;;;;16.17;10.68;;;8.90;91.90;;;;;;5075318;28;20036;-55
2021/05/19 01:00:25;;;;;;;14.85;10.77;;;8.90;92.00;;;;;;5077306;28;20048;-55
2021/05/19 01:02:52;;;;;;;16.60;11.27;;;8.90;92.00;;;;;;5052995;28;20066;-56
2021/05/19 01:05:26;;;;;;;15.07;11.35;;;8.90;92.10;;;;;;5072839;28;20354;-55
2021/05/19 01:10:35;;;;;;;15.57;11.18;;;9.00;92.20;;;;;;5058888;28;20044;-55
2021/05/19 01:13:01;;;;;;;15.05;12.00;;;9.00;92.10;;;;;;5071352;28;20048;-55
2021/05/19 01:15:27;;;;;;;19.88;11.80;;;9.00;92.20;;;;;;5070819;28;20028;-56
2021/05/19 01:17:53;;;;;;;15.27;11.85;;;9.00;92.20;;;;;;5076619;28;20066;-54
2021/05/19 01:20:19;;;;;;;17.23;12.20;;;9.00;92.20;;;;;;5030979;28;20041;-56
2021/05/19 01:22:46;;;;;;;17.25;12.07;;;9.00;92.20;;;;;;5057221;28;20041;-56
2021/05/19 01:25:12;;;;;;;17.40;12.35;;;9.10;92.20;;;;;;5073514;28;20104;-57
2021/05/19 01:27:38;;;;;;;17.92;12.55;;;9.10;92.20;;;;;;5058332;28;20072;-55
2021/05/19 01:30:07;;;;;;;15.90;11.93;;;9.10;92.10;;;;;;5075024;28;20490;-57
2021/05/19 01:32:34;;;;;;;16.35;11.63;;;9.10;92.00;;;;;;5077090;28;20556;-56
2021/05/19 01:35:00;;;;;;;16.75;12.27;;;9.10;92.00;;;;;;5077135;28;20044;-56
2021/05/19 01:37:25;;;;;;;15.75;11.93;;;9.10;92.00;;;;;;5071972;28;20040;-56
2021/05/19 01:39:52;;;;;;;16.20;11.75;;;9.10;92.00;;;;;;5074367;28;20426;-56
2021/05/19 01:42:18;;;;;;;16.58;12.45;;;9.20;92.00;;;;;;5078251;28;20615;-56
2021/05/19 01:44:45;;;;;;;16.48;12.05;;;9.10;92.00;;;;;;5035525;28;20052;-56
2021/05/19 01:47:11;;;;;;;15.25;11.60;;;9.10;92.00;;;;;;5071830;28;20044;-56
2021/05/19 01:49:41;;;;;;;15.55;11.90;;;9.20;92.00;;;;;;5074268;28;20038;-56
2021/05/19 01:52:09;;;;;;;16.77;12.02;;;9.10;92.00;;;;;;5060323;28;20138;-56
2021/05/19 01:54:37;;;;;;;18.13;12.18;;;9.20;92.30;;;;;;5072767;28;20036;-57
2021/05/19 01:57:06;;;;;;;14.73;11.13;;;9.20;92.10;;;;;;5072463;28;20058;-57
2021/05/19 01:59:32;;;;;;;16.90;11.93;;;9.20;92.10;;;;;;5073838;28;20049;-55
2021/05/19 02:01:58;;;;;;;17.52;11.30;;;9.20;92.10;;;;;;5074015;28;20037;-57
2021/05/19 02:04:24;;;;;;;16.08;10.95;;;9.20;92.10;;;;;;5071280;28;20111;-56
2021/05/19 02:06:56;;;;;;;18.55;10.88;;;9.20;92.00;;;;;;5072275;28;20575;-57
2021/05/19 02:09:24;;;;;;;17.52;11.00;;;9.20;92.00;;;;;;5056603;28;20523;-56
2021/05/19 02:11:53;;;;;;;18.13;10.65;;;9.20;92.00;;;;;;5079689;28;20431;-57
2021/05/19 02:14:21;;;;;;;16.63;11.13;;;9.20;92.00;;;;;;5075333;28;20035;-56
2021/05/19 02:16:47;;;;;;;14.32;10.50;;;9.30;92.00;;;;;;5027824;28;20060;-56
2021/05/19 02:19:14;;;;;;;14.60;10.50;;;9.30;92.00;;;;;;5072606;28;20069;-56
2021/05/19 02:21:49;;;;;;;15.77;10.60;;;9.30;91.90;;;;;;5053751;28;20090;-57
2021/05/19 02:24:15;;;;;;;14.45;10.50;;;9.30;91.90;;;;;;5072876;28;20044;-57
2021/05/19 02:26:42;;;;;;;14.60;10.82;;;9.30;91.90;;;;;;5076153;28;20060;-56
2021/05/19 02:29:09;;;;;;;16.35;10.43;;;9.30;91.90;;;;;;5073426;28;20056;-55
2021/05/19 02:31:36;;;;;;;16.02;10.40;;;9.30;91.90;;;;;;5076666;28;20447;-56
2021/05/19 02:34:02;;;;;;;18.77;10.57;;;9.30;91.90;;;;;;5081961;28;20047;-56
2021/05/19 02:36:28;;;;;;;14.98;10.50;;;9.30;91.80;;;;;;5068998;28;20446;-57
2021/05/19 02:38:54;;;;;;;14.55;10.27;;;9.30;91.90;;;;;;5072265;28;20046;-56
2021/05/19 02:41:21;;;;;;;14.70;10.05;;;9.30;91.80;;;;;;5058793;28;20059;-56
2021/05/19 02:43:47;;;;;;;16.35;10.60;;;9.30;91.80;;;;;;5072575;28;20386;-57
2021/05/19 02:46:13;;;;;;;16.20;10.38;;;9.40;91.90;;;;;;5076843;28;20123;-56
2021/05/19 02:48:40;;;;;;;16.52;11.10;;;9.40;92.10;;;;;;5072748;28;20127;-56
2021/05/19 02:51:07;;;;;;;15.80;10.43;;;9.40;91.90;;;;;;5076661;28;20060;-57
2021/05/19 02:53:33;;;;;;;18.33;11.32;;;9.40;91.90;;;;;;5072206;28;20062;-56
2021/05/19 02:55:59;;;;;;;14.85;10.70;;;9.40;92.10;;;;;;5076487;28;20528;-54
2021/05/19 02:58:25;;;;;;;16.02;10.80;;;9.30;91.90;;;;;;5075109;28;20453;-54
2021/05/19 03:00:50;;;;;;;17.00;10.55;;;9.40;91.90;;;;;;5083140;28;20390;-53
2021/05/19 03:03:16;;;;;;;14.52;10.40;;;9.30;91.90;;;;;;5065894;28;20044;-55
2021/05/19 03:05:43;;;;;;;16.40;11.07;;;9.40;91.90;;;;;;5065900;28;20343;-56
2021/05/19 03:08:09;;;;;;;15.55;10.52;;;9.30;92.00;;;;;;5077427;28;20047;-54
2021/05/19 03:10:35;;;;;;;15.77;11.18;;;9.30;91.90;;;;;;5051936;28;20048;-55
2021/05/19 03:13:05;;;;;;;14.82;10.75;;;9.30;92.00;;;;;;5075278;28;20043;-56
2021/05/19 03:15:31;;;;;;;17.63;11.15;;;9.30;91.90;;;;;;5047286;28;20036;-56
2021/05/19 03:17:59;;;;;;;18.73;11.88;;;9.30;91.90;;;;;;5075915;28;20484;-57
2021/05/19 03:20:25;;;;;;;17.40;11.65;;;9.30;91.90;;;;;;5079722;28;20071;-56
2021/05/19 03:22:51;;;;;;;14.63;10.90;;;9.30;92.00;;;;;;5077081;28;20501;-55
2021/05/19 03:25:17;;;;;;;14.98;10.88;;;9.40;91.80;;;;;;5077030;28;20036;-54
2021/05/19 03:27:44;;;;;;;15.70;11.07;;;9.30;91.80;;;;;;5077480;28;20040;-53
2021/05/19 03:30:13;;;;;;;19.23;10.82;;;9.30;91.80;;;;;;5056360;28;20035;-54
2021/05/19 03:32:40;;;;;;;16.85;10.73;;;9.30;91.90;;;;;;5079802;28;20411;-54
2021/05/19 03:35:07;;;;;;;14.75;11.30;;;9.30;91.80;;;;;;5074686;28;20046;-54
2021/05/19 03:37:34;;;;;;;14.95;10.30;;;9.40;91.80;;;;;;5073936;28;20044;-56
2021/05/19 03:40:00;;;;;;;17.27;11.18;;;9.30;91.80;;;;;;5074138;28;20128;-57
2021/05/19 03:42:26;;;;;;;17.48;11.00;;;9.30;91.70;;;;;;5084664;28;20094;-54
2021/05/19 03:44:52;;;;;;;17.23;11.20;;;9.30;91.70;;;;;;5071963;28;20045;-54
2021/05/19 03:47:18;;;;;;;14.25;10.98;;;9.30;91.60;;;;;;5084396;28;20029;-54
2021/05/19 03:49:44;;;;;;;14.90;10.57;;;9.30;91.70;;;;;;5074966;28;20032;-54
2021/05/19 03:52:10;;;;;;;15.43;10.85;;;9.30;91.60;;;;;;5066869;28;20567;-54
2021/05/19 03:54:36;;;;;;;14.52;10.80;;;9.30;91.60;;;;;;5074645;28;20068;-54
2021/05/19 03:57:07;;;;;;;16.55;10.65;;;9.30;91.60;;;;;;5055974;28;20047;-56
2021/05/19 03:59:33;;;;;;;14.65;10.95;;;9.30;91.50;;;;;;5063954;28;20058;-55
2021/05/19 04:01:59;;;;;;;18.63;10.82;;;9.40;91.40;;;;;;5063208;28;20071;-55
2021/05/19 04:04:25;;;;;;;20.52;10.90;;;9.40;91.50;;;;;;5075218;28;20040;-55
2021/05/19 04:06:51;;;;;;;18.02;10.65;;;9.40;91.40;;;;;;5061637;28;20048;-55
2021/05/19 04:09:16;;;;;;;14.85;11.00;;;9.40;91.30;;;;;;5071210;28;20516;-55
2021/05/19 04:11:42;;;;;;;18.27;11.25;;;9.40;91.30;;;;;;5049724;28;20056;-55
2021/05/19 04:14:09;;;;;;;16.88;11.27;;;9.40;91.20;;;;;;5075187;28;20036;-56
2021/05/19 04:16:35;;;;;;;15.80;11.45;;;9.40;91.20;;;;;;5057378;28;20036;-55
2021/05/19 04:19:02;;;;;;;15.63;11.25;;;9.40;91.20;;;;;;5042930;28;20051;-55
2021/05/19 04:21:29;;;;;;;17.17;11.40;;;9.40;91.30;;;;;;5071807;28;20041;-55
2021/05/19 04:23:55;;;;;;;17.20;11.23;;;9.40;91.30;;;;;;5029627;28;20101;-55
2021/05/19 04:26:21;;;;;;;17.08;11.68;;;9.40;91.20;;;;;;5054675;28;20040;-55
2021/05/19 04:28:47;;;;;;;17.83;11.88;;;9.50;91.20;;;;;;5079779;28;20043;-55
2021/05/19 04:31:13;;;;;;;17.75;10.48;;;9.50;91.20;;;;;;5054454;28;20051;-55
2021/05/19 04:33:39;;;;;;;19.77;12.70;;;9.40;91.20;;;;;;5070198;28;20488;-56
2021/05/19 04:36:05;;;;;;;17.13;12.02;;;9.50;91.30;;;;;;5056189;28;20077;-55
2021/05/19 04:38:32;;;;;;;20.90;12.55;;;9.40;91.30;;;;;;5072880;28;20514;-55
2021/05/19 04:40:58;;;;;;;18.77;12.77;;;9.50;91.50;;;;;;5073436;28;20040;-55
2021/05/19 04:43:25;;;;;;;16.77;12.25;;;9.50;91.50;;;;;;5072974;28;20068;-54
2021/05/19 04:45:52;;;;;;;18.83;12.65;;;9.50;91.50;;;;;;5076785;28;20040;-54
2021/05/19 04:48:17;;;;;;;17.08;12.70;;;9.50;91.40;;;;;;5073980;28;20435;-55
2021/05/19 04:50:43;;;;;;;20.30;13.05;;;9.50;91.40;;;;;;5072447;28;20044;-56
2021/05/19 04:53:09;;;;;;;19.85;11.65;;;9.60;91.50;;;;;;5073467;28;20040;-57
2021/05/19 04:55:37;;;;;;;19.20;13.00;;;9.60;91.50;;;;;;5070796;28;20040;-56
2021/05/19 04:58:03;;;;;;;20.25;12.77;;;9.60;91.40;;;;;;5043096;28;20416;-56
2021/05/19 05:00:32;;;;;;;20.58;12.82;;;9.60;91.40;;;;;;5071399;28;21743;-56
2021/05/19 05:02:59;;;;;;;21.38;13.30;;;9.60;91.30;;;;;;5082338;28;20060;-57
2021/05/19 05:05:25;;;;;;;21.02;13.55;;;9.70;91.20;;;;;;5053240;28;20045;-57
2021/05/19 05:07:50;;;;;;;20.08;13.07;;;9.70;91.40;;;;;;5084532;28;20063;-56
2021/05/19 05:10:16;;;;;;;22.10;13.52;;;9.70;91.30;;;;;;5070528;28;20037;-54
2021/05/19 05:12:43;;;;;;;25.88;14.68;;;9.70;91.30;;;;;;5085025;28;20040;-56
2021/05/19 05:15:14;;;;;;;19.83;13.60;;;9.70;91.40;;;;;;5065596;28;20048;-56
2021/05/19 05:17:40;;;;;;;22.80;14.45;;;9.80;91.40;;;;;;5069027;28;20040;-56
2021/05/19 05:20:08;;;;;;;23.92;14.60;;;9.80;91.30;;;;;;5072272;28;20044;-55
2021/05/19 05:22:34;;;;;;;22.10;14.52;;;9.80;91.40;;;;;;5067135;28;20051;-54
2021/05/19 05:25:00;;;;;;;25.52;14.80;;;9.90;91.40;;;;;;5071650;28;20413;-53
2021/05/19 05:27:26;;;;;;;25.33;15.27;;;9.90;91.50;;;;;;5067913;28;20094;-54
2021/05/19 05:29:52;;;;;;;23.80;15.20;;;9.90;91.40;;;;;;5073921;28;20048;-52
2021/05/19 05:32:17;;;;;;;26.40;15.43;;;10.00;91.50;;;;;;5066913;28;20110;-54
2021/05/19 05:34:43;;;;;;;24.52;15.30;;;10.10;91.50;;;;;;5078776;28;20554;-50
2021/05/19 05:37:09;;;;;;;23.40;15.18;;;10.20;91.40;;;;;;5070368;28;20051;-52
2021/05/19 05:39:34;;;;;;;23.75;16.17;;;10.30;91.30;;;;;;5078936;28;20504;-54
2021/05/19 05:42:00;;;;;;;24.20;16.73;;;10.30;91.30;;;;;;5066363;28;20044;-56
2021/05/19 05:44:26;;;;;;;28.20;18.00;;;10.30;91.40;;;;;;5071273;28;20041;-53
2021/05/19 05:46:52;;;;;;;27.90;17.55;;;10.40;91.40;;;;;;5053874;28;20032;-54
2021/05/19 05:49:17;;;;;;;24.73;16.40;;;10.40;91.40;;;;;;5072417;28;20044;-50
2021/05/19 05:51:43;;;;;;;26.83;17.58;;;10.40;91.40;;;;;;5071900;28;20086;-54
2021/05/19 05:54:10;;;;;;;25.80;17.02;;;10.50;91.40;;;;;;5075979;28;20032;-53
2021/05/19 05:56:36;;;;;;;25.67;17.92;;;10.50;91.40;;;;;;5072973;28;20561;-51
2021/05/19 05:59:02;;;;;;;33.72;18.52;;;10.50;91.40;;;;;;5075968;28;20128;-52
2021/05/19 06:01:28;;;;;;;31.38;18.48;;;10.50;91.30;;;;;;5078585;28;20047;-55
2021/05/19 06:03:53;;;;;;;31.98;18.00;;;10.50;91.40;;;;;;5057319;28;20044;-53
2021/05/19 06:06:19;;;;;;;30.42;17.92;;;10.50;91.40;;;;;;5073805;28;20036;-54
2021/05/19 06:08:45;;;;;;;29.88;18.65;;;10.50;91.50;;;;;;5079751;28;20406;-53
2021/05/19 06:11:10;;;;;;;27.67;18.08;;;10.50;91.40;;;;;;5065080;28;20040;-52
2021/05/19 06:13:36;;;;;;;31.45;18.70;;;10.50;91.40;;;;;;5072392;28;20500;-53
2021/05/19 06:16:02;;;;;;;26.13;18.25;;;10.50;91.60;;;;;;5077606;28;20488;-53
2021/05/19 06:18:28;;;;;;;32.67;19.52;;;10.60;91.50;;;;;;5071675;28;20032;-49
2021/05/19 06:20:53;;;;;;;35.60;19.27;;;10.60;91.50;;;;;;5069405;28;20050;-50
2021/05/19 06:23:19;;;;;;;33.38;18.40;;;10.70;91.60;;;;;;5063547;28;20048;-56
2021/05/19 06:25:45;;;;;;;30.92;19.25;;;10.70;91.60;;;;;;5069472;28;20040;-54
2021/05/19 06:28:10;;;;;;;34.90;19.23;;;10.70;91.50;;;;;;5072996;28;20044;-54
2021/05/19 06:30:36;;;;;;;33.45;19.73;;;10.70;91.40;;;;;;5067261;28;20448;-53
2021/05/19 06:33:02;;;;;;;29.27;18.85;;;10.70;91.50;;;;;;5072719;28;20044;-53
2021/05/19 06:35:28;;;;;;;29.45;20.10;;;10.70;91.40;;;;;;5066230;28;20383;-53
2021/05/19 06:37:56;;;;;;;32.10;19.75;;;10.70;91.40;;;;;;5070980;28;20037;-54
2021/05/19 06:40:22;;;;;;;32.70;19.90;;;10.80;91.40;;;;;;5072479;28;20040;-54
2021/05/19 06:42:49;;;;;;;33.60;19.92;;;10.80;91.30;;;;;;5072594;28;20052;-53
2021/05/19 06:45:16;;;;;;;33.60;20.48;;;10.90;91.40;;;;;;5071593;28;20048;-53
2021/05/19 06:47:42;;;;;;;35.60;19.80;;;10.90;91.50;;;;;;5072984;28;20523;-55
2021/05/19 06:50:08;;;;;;;31.17;19.83;;;11.00;91.60;;;;;;5071829;28;20041;-54
2021/05/19 06:52:34;;;;;;;29.42;18.08;;;11.00;91.60;;;;;;5069892;28;20044;-57
2021/05/19 06:55:01;;;;;;;36.22;19.92;;;11.10;91.50;;;;;;5068573;28;20082;-54
2021/05/19 06:57:27;;;;;;;29.15;19.58;;;11.10;91.30;;;;;;5052357;28;20418;-54
2021/05/19 06:59:52;;;;;;;34.47;19.77;;;11.20;91.40;;;;;;5070764;28;20036;-56
2021/05/19 07:02:18;;;;;;;33.30;19.38;;;11.20;91.50;;;;;;5071182;28;20102;-53
2021/05/19 07:04:44;;;;;;;30.52;19.85;;;11.30;91.50;;;;;;5065792;28;20492;-56
2021/05/19 07:07:09;;;;;;;32.63;20.77;;;11.30;91.40;;;;;;5070626;28;20040;-54
2021/05/19 07:09:36;;;;;;;33.58;19.85;;;11.40;91.30;;;;;;5062298;28;20042;-56
2021/05/19 07:12:02;;;;;;;32.63;19.80;;;11.40;91.20;;;;;;5062753;28;20042;-53
2021/05/19 07:14:28;;;;;;;34.47;21.80;;;11.50;91.10;;;;;;5068943;28;20032;-53
2021/05/19 07:16:54;;;;;;;36.17;22.02;;;11.50;91.20;;;;;;5071396;28;20044;-54
2021/05/19 07:19:21;;;;;;;32.00;19.67;;;11.60;91.30;;;;;;5071440;28;20432;-54
2021/05/19 07:21:47;;;;;;;32.80;20.30;;;11.60;91.20;;;;;;5071766;28;20086;-53
2021/05/19 07:24:14;;;;;;;31.92;20.48;;;11.70;91.10;;;;;;5070895;28;20033;-54
2021/05/19 07:26:42;;;;;;;30.02;19.38;;;11.70;91.10;;;;;;5054477;28;20057;-54
2021/05/19 07:29:08;;;;;;;32.15;20.40;;;11.80;91.10;;;;;;5071062;28;20032;-54
2021/05/19 07:31:34;;;;;;;33.47;20.48;;;11.90;91.00;;;;;;5071573;28;20040;-54
2021/05/19 07:34:01;;;;;;;30.33;20.55;;;11.90;90.90;;;;;;5070682;28;20040;-55
2021/05/19 07:36:27;;;;;;;33.40;21.17;;;12.00;90.80;;;;;;5070155;28;20040;-54
2021/05/19 07:38:53;;;;;;;33.33;20.77;;;12.00;90.70;;;;;;5069153;28;20046;-56
2021/05/19 07:41:20;;;;;;;41.53;21.45;;;12.00;90.70;;;;;;5049442;28;20080;-53
2021/05/19 07:43:46;;;;;;;37.00;20.70;;;12.10;90.70;;;;;;5068517;28;20049;-53
2021/05/19 07:46:12;;;;;;;33.67;20.40;;;12.20;90.90;;;;;;5052731;28;20052;-55
2021/05/19 07:48:38;;;;;;;32.70;19.70;;;12.30;90.80;;;;;;5035495;28;20429;-53
2021/05/19 07:51:04;;;;;;;37.35;20.60;;;12.60;90.50;;;;;;5070086;28;20040;-53
2021/05/19 07:53:29;;;;;;;27.67;20.33;;;12.80;90.20;;;;;;5065969;28;20773;-51
2021/05/19 07:56:04;;;;;;;35.70;19.52;;;13.00;89.70;;;;;;5052757;28;20032;-53
2021/05/19 07:58:36;;;;;;;32.05;20.08;;;13.30;89.40;;;;;;5068207;28;20039;-54
2021/05/19 08:03:30;;;;;;;33.97;19.83;;;13.70;88.10;;;;;;5068262;28;20050;-54
2021/05/19 08:05:56;;;;;;;26.27;18.42;;;14.00;87.80;;;;;;5038511;28;20039;-53
2021/05/19 08:08:22;;;;;;;27.80;18.10;;;14.00;86.70;;;;;;5070292;28;20062;-53
2021/05/19 08:10:48;;;;;;;32.50;19.60;;;13.90;85.80;;;;;;5070832;28;20040;-54
2021/05/19 08:13:13;;;;;;;31.27;18.40;;;13.90;86.30;;;;;;5067896;28;20040;-54
2021/05/19 08:15:39;;;;;;;26.50;17.75;;;13.70;86.30;;;;;;5067451;28;20131;-55
2021/05/19 08:18:09;;;;;;;26.75;16.92;;;13.70;86.50;;;;;;5068002;28;20063;-54
2021/05/19 08:20:36;;;;;;;26.08;17.27;;;13.70;86.30;;;;;;5069115;28;20420;-54
2021/05/19 08:23:02;;;;;;;30.25;17.67;;;13.80;85.80;;;;;;5069959;28;20032;-54
2021/05/19 08:25:28;;;;;;;27.17;16.85;;;13.90;85.50;;;;;;5045337;28;20044;-55
2021/05/19 08:27:55;;;;;;;23.90;16.77;;;14.10;85.10;;;;;;5070038;28;20047;-54
2021/05/19 08:30:22;;;;;;;27.85;16.05;;;14.20;85.10;;;;;;5067823;28;20491;-53
2021/05/19 08:32:47;;;;;;;20.42;15.38;;;14.20;84.90;;;;;;5070220;28;20101;-54
2021/05/19 08:35:14;;;;;;;17.85;13.68;;;14.40;84.30;;;;;;5069792;28;20488;-54
2021/05/19 08:37:40;;;;;;;19.48;12.80;;;14.50;83.10;;;;;;5070231;28;20190;-55
2021/05/19 08:40:07;;;;;;;24.30;14.40;;;14.60;82.10;;;;;;5070133;28;20166;-55
2021/05/19 08:42:35;;;;;;;21.42;12.82;;;14.60;81.60;;;;;;5070848;28;20056;-53
2021/05/19 08:45:01;;;;;;;16.70;12.93;;;14.60;81.90;;;;;;5068044;28;20044;-54
2021/05/19 08:47:27;;;;;;;19.70;12.75;;;14.80;81.40;;;;;;5070482;28;20447;-56
2021/05/19 08:49:52;;;;;;;19.92;13.45;;;14.80;81.00;;;;;;5046739;28;20040;-56
2021/05/19 08:52:19;;;;;;;19.83;13.38;;;14.80;80.60;;;;;;5066155;28;20036;-56
2021/05/19 08:54:45;;;;;;;19.05;13.80;;;14.60;80.00;;;;;;5067160;28;20036;-53
2021/05/19 08:57:12;;;;;;;17.95;13.80;;;14.60;80.50;;;;;;5048617;28;20111;-54
2021/05/19 08:59:38;;;;;;;20.23;13.55;;;14.50;80.80;;;;;;5044002;28;20069;-56
2021/05/19 09:02:23;;;;;;;20.20;13.85;;;14.40;79.70;;;;;;5061011;28;20040;-53
2021/05/19 09:04:57;;;;;;;19.35;13.18;;;14.30;79.50;;;;;;5062531;28;20090;-54
2021/05/19 09:07:24;;;;;;;16.10;10.63;;;14.30;80.30;;;;;;5064010;28;20476;-55
2021/05/19 09:09:50;;;;;;;19.25;12.45;;;14.20;79.60;;;;;;5065257;28;20399;-54
2021/05/19 09:12:16;;;;;;;15.80;12.32;;;14.30;80.40;;;;;;5064351;28;20032;-53
2021/05/19 09:15:00;;;;;;;20.45;12.20;;;14.50;80.60;;;;;;5063762;28;20033;-52
2021/05/19 09:17:29;;;;;;;18.88;12.38;;;14.70;80.10;;;;;;5066582;28;20048;-53
2021/05/19 09:20:17;;;;;;;20.80;13.57;;;14.70;79.10;;;;;;5057127;28;20769;-57
2021/05/19 09:22:45;;;;;;;20.63;11.93;;;14.80;76.80;;;;;;5053998;28;20135;-56
2021/05/19 09:25:19;;;;;;;18.17;11.75;;;14.80;77.00;;;;;;5064200;28;20036;-58
2021/05/19 09:27:48;;;;;;;19.27;11.02;;;15.00;77.40;;;;;;5069861;28;20040;-54
2021/05/19 09:30:14;;;;;;;13.85;10.02;;;15.30;76.90;;;;;;5071336;28;20627;-56
2021/05/19 09:32:43;;;;;;;16.35;10.82;;;15.40;76.10;;;;;;5070608;28;20502;-53
2021/05/19 09:35:10;;;;;;;17.45;10.55;;;15.40;74.60;;;;;;5058561;28;20320;-53
2021/05/19 09:37:36;;;;;;;15.07;8.52;;;15.30;75.60;;;;;;5074356;28;20415;-57
2021/05/19 09:40:09;;;;;;;16.08;9.00;;;15.50;75.40;;;;;;5067439;28;20036;-54
2021/05/19 09:42:37;;;;;;;;;;;15.70;74.60;;;;;;5070596;28;20035;-53
2021/05/19 09:45:23;;;;;;;13.38;8.77;;;15.80;71.60;;;;;;5065882;28;20063;-55
2021/05/19 09:47:53;;;;;;;17.73;9.82;;;15.80;71.70;;;;;;5065905;28;20466;-56
2021/05/19 09:50:24;;;;;;;17.08;10.65;;;15.60;71.10;;;;;;5069692;28;20041;-54
2021/05/19 09:53:16;;;;;;;13.70;9.10;;;15.40;72.20;;;;;;5073491;28;20040;-55
2021/05/19 09:56:02;;;;;;;;;;;15.20;71.80;;;;;;5075711;28;20090;-55
2021/05/19 09:58:40;;;;;;;14.73;7.10;;;14.90;74.30;;;;;;5068541;28;20058;-56
2021/05/19 10:01:08;;;;;;;8.43;4.38;;;14.50;76.10;;;;;;5071773;28;20704;-55
2021/05/19 10:03:35;;;;;;;7.20;3.85;;;14.00;76.80;;;;;;5062063;28;20072;-56
2021/05/19 10:08:50;;;;;;;7.72;3.80;;;13.30;79.70;;;;;;5038508;28;20111;-56
2021/05/19 10:11:16;;;;;;;5.35;3.22;;;13.10;81.60;;;;;;5067253;28;20098;-55
2021/05/19 10:13:43;;;;;;;5.35;3.05;;;12.90;83.10;;;;;;5066068;28;20045;-56
2021/05/19 10:16:14;;;;;;;6.07;3.53;;;12.70;83.10;;;;;;5065307;28;20044;-55
2021/05/19 10:18:47;;;;;;;8.10;3.58;;;12.60;84.60;;;;;;5063657;28;20094;-55
2021/05/19 10:21:15;;;;;;;8.85;4.40;;;12.60;86.20;;;;;;5063842;28;20032;-56
2021/05/19 10:24:05;;;;;;;8.90;5.50;;;12.60;86.40;;;;;;5031257;28;20079;-54
2021/05/19 10:26:32;;;;;;;13.57;6.15;;;12.60;87.20;;;;;;5064760;28;20040;-55
2021/05/19 10:28:59;;;;;;;10.65;7.18;;;12.60;87.40;;;;;;5064557;28;20044;-55
2021/05/19 10:31:40;;;;;;;10.20;7.20;;;12.50;87.20;;;;;;5045797;28;20052;-54
2021/05/19 10:34:07;;;;;;;14.10;7.15;;;12.50;88.40;;;;;;5064458;28;20044;-53
2021/05/19 10:36:39;;;;;;;9.70;5.70;;;12.50;88.80;;;;;;5064328;28;20806;-57
2021/05/19 10:39:08;;;;;;;10.73;5.70;;;12.50;87.80;;;;;;5065650;28;20086;-56
2021/05/19 10:41:45;;;;;;;9.02;6.10;;;12.40;87.10;;;;;;5066041;28;20045;-56
2021/05/19 10:44:23;;;;;;;14.32;6.97;;;12.30;88.30;;;;;;5064749;28;20043;-57
2021/05/19 10:47:09;;;;;;;14.48;8.35;;;12.20;88.40;;;;;;5064835;28;20539;-53
2021/05/19 10:52:33;;;;;;;14.00;7.60;;;12.10;88.60;;;;;;5075615;28;20522;-54
2021/05/19 10:58:00;;;;;;;9.15;5.65;;;12.00;89.50;;;;;;5067597;28;20046;-56
2021/05/19 11:00:30;;;;;;;7.55;5.28;;;11.90;89.40;;;;;;5063304;28;20587;-51
2021/05/19 11:03:04;;;;;;;7.18;3.58;;;11.90;89.50;;;;;;5070632;28;20454;-52
2021/05/19 11:05:33;;;;;;;6.20;3.60;;;11.80;89.90;;;;;;5071220;28;20044;-54
2021/05/19 11:08:08;;;;;;;6.00;3.15;;;11.80;88.90;;;;;;5067871;28;20102;-53
2021/05/19 11:10:47;;;;;;;5.07;3.03;;;11.80;88.90;;;;;;5066721;28;20064;-53
2021/05/19 11:13:14;;;;;;;5.13;3.45;;;11.70;88.80;;;;;;5066728;28;20071;-56
2021/05/19 11:18:19;;;;;;;10.40;4.25;;;11.60;89.30;;;;;;5057472;28;20028;-52
2021/05/19 11:20:47;;;;;;;6.97;4.43;;;11.60;89.20;;;;;;5069331;28;20036;-53
2021/05/19 11:23:14;;;;;;;11.60;4.90;;;11.50;89.70;;;;;;5067646;28;20401;-54
2021/05/19 11:25:41;;;;;;;11.18;5.75;;;11.50;90.20;;;;;;5066654;28;20047;-54
2021/05/19 11:28:07;;;;;;;10.65;6.30;;;11.50;90.30;;;;;;5051264;28;20044;-53
2021/05/19 11:30:33;;;;;;;7.63;5.50;;;11.50;90.30;;;;;;5067972;28;20417;-54
2021/05/19 11:33:11;;;;;;;9.77;6.20;;;11.50;90.60;;;;;;5067904;28;20056;-53
2021/05/19 11:35:38;;;;;;;8.07;5.90;;;11.40;90.70;;;;;;5064920;28;20459;-54
2021/05/19 11:38:06;;;;;;;9.13;5.55;;;11.50;91.00;;;;;;5066825;28;20040;-54
2021/05/19 11:41:02;;;;;;;10.73;6.07;;;11.50;90.80;;;;;;5064326;28;20044;-52
2021/05/19 11:43:36;;;;;;;15.95;7.47;;;11.60;91.10;;;;;;5053174;28;20040;-54
2021/05/19 11:46:01;;;;;;;8.48;5.43;;;11.60;91.40;;;;;;5064572;28;20044;-53
2021/05/19 11:48:28;;;;;;;10.38;5.75;;;11.70;91.40;;;;;;5061701;28;20052;-50
2021/05/19 11:50:56;;;;;;;7.75;5.18;;;11.80;91.30;;;;;;5067443;28;20051;-50
2021/05/19 11:53:22;;;;;;;12.57;4.78;;;11.90;91.30;;;;;;5048155;28;20250;-51
2021/05/19 11:55:50;;;;;;;9.25;4.38;;;12.00;91.10;;;;;;5067693;28;20063;-52
2021/05/19 11:58:26;;;;;;;8.32;5.03;;;12.10;90.90;;;;;;5067739;28;20252;-54
2021/05/19 12:00:59;;;;;;;7.03;4.30;;;12.10;90.90;;;;;;5063808;28;20390;-52
2021/05/19 12:03:27;;;;;;;7.53;4.53;;;12.20;90.90;;;;;;5063989;28;20039;-56
2021/05/19 12:05:55;;;;;;;9.57;5.15;;;12.30;90.90;;;;;;5059729;28;20044;-55
2021/05/19 12:08:23;;;;;;;8.35;4.65;;;12.30;90.80;;;;;;5068337;28;20040;-56
2021/05/19 12:11:17;;;;;;;8.07;4.65;;;12.40;90.60;;;;;;5064662;28;20060;-55
2021/05/19 12:13:56;;;;;;;7.93;4.90;;;12.40;90.90;;;;;;5062286;28;20145;-55
2021/05/19 12:16:32;;;;;;;7.43;5.22;;;12.40;90.70;;;;;;5057414;28;20036;-55
2021/05/19 12:19:09;;;;;;;7.82;5.18;;;12.40;90.80;;;;;;5057452;28;20032;-55
2021/05/19 12:21:48;;;;;;;7.38;5.20;;;12.30;90.90;;;;;;5057925;28;20131;-53
2021/05/19 12:24:16;;;;;;;9.93;5.25;;;12.20;90.70;;;;;;5065850;28;20044;-52
2021/05/19 12:26:43;;;;;;;8.40;5.40;;;12.20;90.70;;;;;;5069679;28;20072;-52
2021/05/19 12:29:45;;;;;;;7.95;4.97;;;12.20;90.80;;;;;;5073438;28;20044;-49
2021/05/19 12:32:19;;;;;;;8.48;5.47;;;12.20;90.90;;;;;;5065599;28;20044;-51
2021/05/19 12:35:07;;;;;;;6.28;4.35;;;12.10;90.70;;;;;;5050857;28;20412;-49
2021/05/19 12:38:01;;;;;;;8.52;4.40;;;12.10;90.80;;;;;;5070045;28;20040;-53
2021/05/19 12:40:30;;;;;;;8.70;5.22;;;12.20;90.90;;;;;;5069591;28;20488;-53
2021/05/19 12:43:01;;;;;;;8.70;5.13;;;12.20;90.90;;;;;;5066081;28;20040;-50
2021/05/19 12:45:43;;;;;;;7.50;3.63;;;12.20;91.00;;;;;;5068675;28;20415;-53
2021/05/19 12:48:14;;;;;;;6.75;3.92;;;12.30;91.00;;;;;;5066859;28;20123;-56
2021/05/19 12:50:46;;;;;;;4.78;3.80;;;12.20;90.90;;;;;;5069988;28;20047;-50
2021/05/19 12:53:42;;;;;;;7.13;3.50;;;12.30;91.10;;;;;;5067788;28;20072;-53
2021/05/19 12:56:23;;;;;;;6.47;3.28;;;12.20;91.10;;;;;;5066671;28;20507;-54
2021/05/19 12:59:01;;;;;;;5.55;3.30;;;12.20;90.60;;;;;;5034797;28;20036;-53